sensor_id;sensor_type;location;lat;lon;timestamp;temperature;humidity
19256;DHT22;9762;52.490;13.410;2023-03-31T00:01:06;14.10;97.80
19256;DHT22;9762;52.490;13.410;2023-03-31T00:03:33;14.10;97.70
19256;DHT22;9762;52.490;13.410;2023-03-31T00:06:03;14.10;97.80
19256;DHT22;9762;52.490;13.410;2023-03-31T00:08:30;14.00;97.90
19256;DHT22;9762;52.490;13.410;2023-03-31T00:11:01;14.10;98.00
19256;DHT22;9762;52.490;13.410;2023-03-31T00:13:28;14.00;98.00
19256;DHT22;9762;52.490;13.410;2023-03-31T00:16:05;14.10;97.90
19256;DHT22;9762;52.490;13.410;2023-03-31T00:18:31;14.10;97.80
19256;DHT22;9762;52.490;13.410;2023-03-31T00:21:10;14.10;97.80
19256;DHT22;9762;52.490;13.410;2023-03-31T00:23:58;14.10;97.80
19256;DHT22;9762;52.490;13.410;2023-03-31T00:26:25;14.10;97.70
19256;DHT22;9762;52.490;13.410;2023-03-31T00:28:51;14.10;97.70
19256;DHT22;9762;52.490;13.410;2023-03-31T00:31:17;14.10;97.80
19256;DHT22;9762;52.490;13.410;2023-03-31T00:33:43;14.00;97.80
19256;DHT22;9762;52.490;13.410;2023-03-31T00:36:08;14.00;97.80
19256;DHT22;9762;52.490;13.410;2023-03-31T00:38:34;14.10;97.80
19256;DHT22;9762;52.490;13.410;2023-03-31T00:41:01;14.10;97.80
19256;DHT22;9762;52.490;13.410;2023-03-31T00:45:55;14.10;97.80
19256;DHT22;9762;52.490;13.410;2023-03-31T00:48:22;14.10;97.60
19256;DHT22;9762;52.490;13.410;2023-03-31T00:50:55;14.10;97.50
19256;DHT22;9762;52.490;13.410;2023-03-31T00:53:26;14.10;97.60
19256;DHT22;9762;52.490;13.410;2023-03-31T00:55:55;14.00;97.70
19256;DHT22;9762;52.490;13.410;2023-03-31T00:58:24;14.00;97.90
19256;DHT22;9762;52.490;13.410;2023-03-31T01:00:54;14.10;98.10
19256;DHT22;9762;52.490;13.410;2023-03-31T01:03:22;14.00;97.70
19256;DHT22;9762;52.490;13.410;2023-03-31T01:05:52;14.00;97.80
19256;DHT22;9762;52.490;13.410;2023-03-31T01:08:21;13.90;97.80
19256;DHT22;9762;52.490;13.410;2023-03-31T01:11:01;13.90;97.70
19256;DHT22;9762;52.490;13.410;2023-03-31T01:13:29;13.90;98.00
19256;DHT22;9762;52.490;13.410;2023-03-31T01:15:55;13.90;97.70
19256;DHT22;9762;52.490;13.410;2023-03-31T01:18:21;13.80;97.90
19256;DHT22;9762;52.490;13.410;2023-03-31T01:42:35;13.60;98.00
19256;DHT22;9762;52.490;13.410;2023-03-31T01:45:11;13.50;98.00
19256;DHT22;9762;52.490;13.410;2023-03-31T01:47:59;13.50;98.10
19256;DHT22;9762;52.490;13.410;2023-03-31T01:50:45;13.50;98.20
19256;DHT22;9762;52.490;13.410;2023-03-31T01:56:11;13.50;98.10
19256;DHT22;9762;52.490;13.410;2023-03-31T02:01:32;13.50;98.20
19256;DHT22;9762;52.490;13.410;2023-03-31T02:04:16;13.50;98.30
19256;DHT22;9762;52.490;13.410;2023-03-31T02:06:49;13.50;98.30
19256;DHT22;9762;52.490;13.410;2023-03-31T02:09:22;13.50;98.30
19256;DHT22;9762;52.490;13.410;2023-03-31T02:11:49;13.50;98.30
19256;DHT22;9762;52.490;13.410;2023-03-31T02:14:19;13.50;98.20
19256;DHT22;9762;52.490;13.410;2023-03-31T02:16:50;13.50;98.10
19256;DHT22;9762;52.490;13.410;2023-03-31T02:19:18;13.50;98.40
19256;DHT22;9762;52.490;13.410;2023-03-31T02:21:47;13.60;98.10
19256;DHT22;9762;52.490;13.410;2023-03-31T02:24:16;13.60;98.10
19256;DHT22;9762;52.490;13.410;2023-03-31T02:27:20;13.50;98.00
19256;DHT22;9762;52.490;13.410;2023-03-31T02:29:38;13.60;98.00
19256;DHT22;9762;52.490;13.410;2023-03-31T02:34:47;13.50;98.10
19256;DHT22;9762;52.490;13.410;2023-03-31T02:37:14;13.50;98.10
19256;DHT22;9762;52.490;13.410;2023-03-31T02:39:42;13.50;98.10
19256;DHT22;9762;52.490;13.410;2023-03-31T02:42:09;13.50;98.10
19256;DHT22;9762;52.490;13.410;2023-03-31T02:44:36;13.50;98.20
19256;DHT22;9762;52.490;13.410;2023-03-31T02:47:05;13.50;98.20
19256;DHT22;9762;52.490;13.410;2023-03-31T02:49:32;13.50;98.20
19256;DHT22;9762;52.490;13.410;2023-03-31T03:03:13;13.50;98.20
19256;DHT22;9762;52.490;13.410;2023-03-31T03:06:03;13.50;98.30
19256;DHT22;9762;52.490;13.410;2023-03-31T03:08:54;13.60;98.30
19256;DHT22;9762;52.490;13.410;2023-03-31T03:11:26;13.60;98.30
19256;DHT22;9762;52.490;13.410;2023-03-31T03:14:06;13.60;98.30
19256;DHT22;9762;52.490;13.410;2023-03-31T03:16:40;13.70;98.30
19256;DHT22;9762;52.490;13.410;2023-03-31T03:19:07;13.70;98.20
19256;DHT22;9762;52.490;13.410;2023-03-31T03:21:33;13.70;98.20
19256;DHT22;9762;52.490;13.410;2023-03-31T03:23:59;13.70;98.10
19256;DHT22;9762;52.490;13.410;2023-03-31T03:26:26;13.70;98.10
19256;DHT22;9762;52.490;13.410;2023-03-31T03:28:56;13.70;98.10
19256;DHT22;9762;52.490;13.410;2023-03-31T03:31:22;13.70;98.10
19256;DHT22;9762;52.490;13.410;2023-03-31T03:33:49;13.70;98.20
19256;DHT22;9762;52.490;13.410;2023-03-31T03:36:15;13.70;98.20
19256;DHT22;9762;52.490;13.410;2023-03-31T03:38:41;13.70;98.30
19256;DHT22;9762;52.490;13.410;2023-03-31T03:41:06;13.70;98.40
19256;DHT22;9762;52.490;13.410;2023-03-31T03:43:32;13.70;98.60
19256;DHT22;9762;52.490;13.410;2023-03-31T03:45:58;13.70;98.60
19256;DHT22;9762;52.490;13.410;2023-03-31T03:48:24;13.70;98.70
19256;DHT22;9762;52.490;13.410;2023-03-31T03:50:51;13.70;99.20
19256;DHT22;9762;52.490;13.410;2023-03-31T03:53:18;13.70;98.90
19256;DHT22;9762;52.490;13.410;2023-03-31T03:55:44;13.70;98.90
19256;DHT22;9762;52.490;13.410;2023-03-31T03:58:10;13.70;98.90
19256;DHT22;9762;52.490;13.410;2023-03-31T04:00:35;13.80;98.80
19256;DHT22;9762;52.490;13.410;2023-03-31T04:03:01;13.80;98.80
19256;DHT22;9762;52.490;13.410;2023-03-31T04:05:27;13.80;98.60
19256;DHT22;9762;52.490;13.410;2023-03-31T04:07:52;13.80;98.70
19256;DHT22;9762;52.490;13.410;2023-03-31T04:10:18;13.80;98.70
19256;DHT22;9762;52.490;13.410;2023-03-31T04:12:43;13.90;98.70
19256;DHT22;9762;52.490;13.410;2023-03-31T04:15:09;13.90;98.70
19256;DHT22;9762;52.490;13.410;2023-03-31T04:17:35;13.90;98.70
19256;DHT22;9762;52.490;13.410;2023-03-31T04:20:10;13.90;98.80
19256;DHT22;9762;52.490;13.410;2023-03-31T04:22:37;13.90;98.70
19256;DHT22;9762;52.490;13.410;2023-03-31T04:25:07;13.90;98.80
19256;DHT22;9762;52.490;13.410;2023-03-31T04:27:46;13.90;98.80
19256;DHT22;9762;52.490;13.410;2023-03-31T04:30:15;13.90;98.70
19256;DHT22;9762;52.490;13.410;2023-03-31T04:32:51;13.80;98.80
19256;DHT22;9762;52.490;13.410;2023-03-31T04:35:18;13.80;98.90
19256;DHT22;9762;52.490;13.410;2023-03-31T04:37:46;13.80;99.00
19256;DHT22;9762;52.490;13.410;2023-03-31T04:40:12;13.80;99.00
19256;DHT22;9762;52.490;13.410;2023-03-31T04:42:38;13.80;99.00
19256;DHT22;9762;52.490;13.410;2023-03-31T04:45:04;13.70;99.00
19256;DHT22;9762;52.490;13.410;2023-03-31T04:47:29;13.70;99.20
19256;DHT22;9762;52.490;13.410;2023-03-31T04:49:55;13.70;99.10
19256;DHT22;9762;52.490;13.410;2023-03-31T04:52:21;13.70;99.00
19256;DHT22;9762;52.490;13.410;2023-03-31T04:54:46;13.70;99.20
19256;DHT22;9762;52.490;13.410;2023-03-31T04:57:12;13.70;99.20
19256;DHT22;9762;52.490;13.410;2023-03-31T04:59:37;13.70;99.40
19256;DHT22;9762;52.490;13.410;2023-03-31T05:02:03;13.70;99.40
19256;DHT22;9762;52.490;13.410;2023-03-31T05:04:29;13.70;99.40
19256;DHT22;9762;52.490;13.410;2023-03-31T05:06:54;13.70;99.30
19256;DHT22;9762;52.490;13.410;2023-03-31T05:09:21;13.70;99.30
19256;DHT22;9762;52.490;13.410;2023-03-31T05:11:47;13.70;99.40
19256;DHT22;9762;52.490;13.410;2023-03-31T05:14:12;13.60;99.30
19256;DHT22;9762;52.490;13.410;2023-03-31T05:16:38;13.60;99.30
19256;DHT22;9762;52.490;13.410;2023-03-31T05:19:04;13.60;99.30
19256;DHT22;9762;52.490;13.410;2023-03-31T05:21:29;13.60;99.30
19256;DHT22;9762;52.490;13.410;2023-03-31T05:23:56;13.60;99.30
19256;DHT22;9762;52.490;13.410;2023-03-31T05:26:23;13.60;99.20
19256;DHT22;9762;52.490;13.410;2023-03-31T05:28:53;13.60;99.30
19256;DHT22;9762;52.490;13.410;2023-03-31T05:31:19;13.60;99.40
19256;DHT22;9762;52.490;13.410;2023-03-31T05:33:45;13.60;99.30
19256;DHT22;9762;52.490;13.410;2023-03-31T05:36:16;13.60;99.20
19256;DHT22;9762;52.490;13.410;2023-03-31T05:38:42;13.60;99.30
19256;DHT22;9762;52.490;13.410;2023-03-31T05:41:08;13.60;99.30
19256;DHT22;9762;52.490;13.410;2023-03-31T05:43:36;13.60;99.10
19256;DHT22;9762;52.490;13.410;2023-03-31T05:46:02;13.60;99.20
19256;DHT22;9762;52.490;13.410;2023-03-31T05:48:28;13.60;99.20
19256;DHT22;9762;52.490;13.410;2023-03-31T05:50:57;13.70;99.40
19256;DHT22;9762;52.490;13.410;2023-03-31T05:53:24;13.70;99.20
19256;DHT22;9762;52.490;13.410;2023-03-31T05:55:59;13.80;99.30
19256;DHT22;9762;52.490;13.410;2023-03-31T05:58:26;13.90;99.20
19256;DHT22;9762;52.490;13.410;2023-03-31T06:01:07;13.90;99.30
19256;DHT22;9762;52.490;13.410;2023-03-31T06:03:34;14.00;98.80
19256;DHT22;9762;52.490;13.410;2023-03-31T06:06:00;14.00;98.80
19256;DHT22;9762;52.490;13.410;2023-03-31T06:08:33;14.00;98.70
19256;DHT22;9762;52.490;13.410;2023-03-31T06:10:59;14.10;98.70
19256;DHT22;9762;52.490;13.410;2023-03-31T06:13:28;14.20;98.60
19256;DHT22;9762;52.490;13.410;2023-03-31T06:15:58;14.20;98.60
19256;DHT22;9762;52.490;13.410;2023-03-31T06:18:25;14.20;98.40
19256;DHT22;9762;52.490;13.410;2023-03-31T06:20:53;14.30;98.60
19256;DHT22;9762;52.490;13.410;2023-03-31T06:23:19;14.30;98.60
19256;DHT22;9762;52.490;13.410;2023-03-31T06:25:45;14.30;98.30
19256;DHT22;9762;52.490;13.410;2023-03-31T06:28:11;14.40;98.10
19256;DHT22;9762;52.490;13.410;2023-03-31T06:30:36;14.40;98.10
19256;DHT22;9762;52.490;13.410;2023-03-31T06:33:02;14.40;98.00
19256;DHT22;9762;52.490;13.410;2023-03-31T06:35:28;14.40;97.90
19256;DHT22;9762;52.490;13.410;2023-03-31T06:37:53;14.40;97.90
19256;DHT22;9762;52.490;13.410;2023-03-31T06:40:19;14.40;97.90
19256;DHT22;9762;52.490;13.410;2023-03-31T06:42:45;14.40;97.90
19256;DHT22;9762;52.490;13.410;2023-03-31T06:45:10;14.40;97.90
19256;DHT22;9762;52.490;13.410;2023-03-31T06:47:36;14.50;97.80
19256;DHT22;9762;52.490;13.410;2023-03-31T06:50:03;14.50;97.80
19256;DHT22;9762;52.490;13.410;2023-03-31T06:52:30;14.50;97.80
19256;DHT22;9762;52.490;13.410;2023-03-31T06:54:56;14.50;97.70
19256;DHT22;9762;52.490;13.410;2023-03-31T06:57:22;14.60;97.60
19256;DHT22;9762;52.490;13.410;2023-03-31T06:59:47;14.60;97.60
19256;DHT22;9762;52.490;13.410;2023-03-31T07:02:14;14.60;97.60
19256;DHT22;9762;52.490;13.410;2023-03-31T07:04:39;14.60;97.60
19256;DHT22;9762;52.490;13.410;2023-03-31T07:07:05;14.60;97.60
19256;DHT22;9762;52.490;13.410;2023-03-31T07:09:31;14.70;97.50
19256;DHT22;9762;52.490;13.410;2023-03-31T07:11:57;14.70;97.50
19256;DHT22;9762;52.490;13.410;2023-03-31T07:14:22;14.70;97.40
19256;DHT22;9762;52.490;13.410;2023-03-31T07:16:48;14.70;97.30
19256;DHT22;9762;52.490;13.410;2023-03-31T07:19:15;14.80;97.50
19256;DHT22;9762;52.490;13.410;2023-03-31T07:21:41;14.80;97.40
19256;DHT22;9762;52.490;13.410;2023-03-31T07:24:06;14.90;97.30
19256;DHT22;9762;52.490;13.410;2023-03-31T07:26:32;14.90;97.20
19256;DHT22;9762;52.490;13.410;2023-03-31T07:28:58;15.00;97.10
19256;DHT22;9762;52.490;13.410;2023-03-31T07:31:24;15.00;97.10
19256;DHT22;9762;52.490;13.410;2023-03-31T07:33:50;15.10;97.20
19256;DHT22;9762;52.490;13.410;2023-03-31T07:36:16;15.10;96.60
19256;DHT22;9762;52.490;13.410;2023-03-31T07:38:43;15.20;96.70
19256;DHT22;9762;52.490;13.410;2023-03-31T07:41:15;15.20;98.40
19256;DHT22;9762;52.490;13.410;2023-03-31T07:43:41;15.20;98.20
19256;DHT22;9762;52.490;13.410;2023-03-31T07:46:16;15.20;96.70
19256;DHT22;9762;52.490;13.410;2023-03-31T07:48:44;15.20;96.40
19256;DHT22;9762;52.490;13.410;2023-03-31T07:51:12;15.30;96.40
19256;DHT22;9762;52.490;13.410;2023-03-31T07:53:38;15.30;96.20
19256;DHT22;9762;52.490;13.410;2023-03-31T07:56:03;15.40;96.30
19256;DHT22;9762;52.490;13.410;2023-03-31T07:58:29;15.40;97.10
19256;DHT22;9762;52.490;13.410;2023-03-31T08:05:50;15.80;94.50
19256;DHT22;9762;52.490;13.410;2023-03-31T08:08:16;15.80;94.90
19256;DHT22;9762;52.490;13.410;2023-03-31T08:10:42;15.80;95.10
19256;DHT22;9762;52.490;13.410;2023-03-31T08:13:07;15.90;95.10
19256;DHT22;9762;52.490;13.410;2023-03-31T08:17:59;16.10;99.90
19256;DHT22;9762;52.490;13.410;2023-03-31T08:25:17;16.30;93.80
19256;DHT22;9762;52.490;13.410;2023-03-31T08:27:43;16.30;94.00
19256;DHT22;9762;52.490;13.410;2023-03-31T08:30:09;16.30;94.10
19256;DHT22;9762;52.490;13.410;2023-03-31T08:32:36;16.30;94.30
19256;DHT22;9762;52.490;13.410;2023-03-31T08:37:27;16.50;94.00
19256;DHT22;9762;52.490;13.410;2023-03-31T08:39:56;16.60;94.30
19256;DHT22;9762;52.490;13.410;2023-03-31T08:48:27;16.80;93.60
19256;DHT22;9762;52.490;13.410;2023-03-31T08:51:04;16.90;93.10
19256;DHT22;9762;52.490;13.410;2023-03-31T08:53:36;17.00;93.00
19256;DHT22;9762;52.490;13.410;2023-03-31T08:56:06;17.00;93.00
19256;DHT22;9762;52.490;13.410;2023-03-31T09:01:41;17.10;92.50
19256;DHT22;9762;52.490;13.410;2023-03-31T09:04:42;17.10;92.50
19256;DHT22;9762;52.490;13.410;2023-03-31T09:10:17;17.10;92.80
19256;DHT22;9762;52.490;13.410;2023-03-31T09:15:54;17.10;92.60
19256;DHT22;9762;52.490;13.410;2023-03-31T09:18:31;17.20;92.30
19256;DHT22;9762;52.490;13.410;2023-03-31T09:23:51;17.30;92.20
19256;DHT22;9762;52.490;13.410;2023-03-31T09:26:42;17.40;92.30
19256;DHT22;9762;52.490;13.410;2023-03-31T09:34:49;17.80;91.40
19256;DHT22;9762;52.490;13.410;2023-03-31T09:37:15;17.90;91.80
19256;DHT22;9762;52.490;13.410;2023-03-31T09:39:41;18.10;91.70
19256;DHT22;9762;52.490;13.410;2023-03-31T09:42:12;18.20;91.40
19256;DHT22;9762;52.490;13.410;2023-03-31T09:44:40;18.30;90.70
19256;DHT22;9762;52.490;13.410;2023-03-31T09:47:14;18.40;90.30
19256;DHT22;9762;52.490;13.410;2023-03-31T09:49:43;18.30;90.10
19256;DHT22;9762;52.490;13.410;2023-03-31T09:52:29;18.30;90.00
19256;DHT22;9762;52.490;13.410;2023-03-31T09:55:14;18.20;90.10
19256;DHT22;9762;52.490;13.410;2023-03-31T09:57:42;18.20;90.20
19256;DHT22;9762;52.490;13.410;2023-03-31T10:10:37;18.20;89.60
19256;DHT22;9762;52.490;13.410;2023-03-31T10:13:13;18.20;88.90
19256;DHT22;9762;52.490;13.410;2023-03-31T10:15:40;18.10;89.10
19256;DHT22;9762;52.490;13.410;2023-03-31T10:18:13;18.10;89.40
19256;DHT22;9762;52.490;13.410;2023-03-31T10:20:43;17.90;90.00
19256;DHT22;9762;52.490;13.410;2023-03-31T10:23:22;17.90;90.20
19256;DHT22;9762;52.490;13.410;2023-03-31T10:25:49;17.80;90.60
19256;DHT22;9762;52.490;13.410;2023-03-31T10:28:18;17.80;90.80
19256;DHT22;9762;52.490;13.410;2023-03-31T10:31:02;17.90;91.00
19256;DHT22;9762;52.490;13.410;2023-03-31T10:33:32;17.90;91.00
19256;DHT22;9762;52.490;13.410;2023-03-31T10:36:07;18.00;91.10
19256;DHT22;9762;52.490;13.410;2023-03-31T10:38:41;18.00;91.10
19256;DHT22;9762;52.490;13.410;2023-03-31T10:41:09;18.10;91.00
19256;DHT22;9762;52.490;13.410;2023-03-31T10:43:50;18.00;90.90
19256;DHT22;9762;52.490;13.410;2023-03-31T10:46:16;18.00;90.70
19256;DHT22;9762;52.490;13.410;2023-03-31T10:48:42;17.90;90.90
19256;DHT22;9762;52.490;13.410;2023-03-31T10:51:16;17.70;90.50
19256;DHT22;9762;52.490;13.410;2023-03-31T10:53:47;17.60;90.50
19256;DHT22;9762;52.490;13.410;2023-03-31T11:12:02;17.70;94.10
19256;DHT22;9762;52.490;13.410;2023-03-31T11:14:49;17.70;94.40
19256;DHT22;9762;52.490;13.410;2023-03-31T11:25:13;18.60;93.00
19256;DHT22;9762;52.490;13.410;2023-03-31T11:28:00;18.70;92.30
19256;DHT22;9762;52.490;13.410;2023-03-31T11:39:14;18.40;91.80
19256;DHT22;9762;52.490;13.410;2023-03-31T11:41:56;18.30;91.70
19256;DHT22;9762;52.490;13.410;2023-03-31T11:44:24;18.30;91.70
19256;DHT22;9762;52.490;13.410;2023-03-31T11:46:59;18.20;91.70
19256;DHT22;9762;52.490;13.410;2023-03-31T11:49:37;18.20;91.80
19256;DHT22;9762;52.490;13.410;2023-03-31T11:52:32;18.20;91.50
19256;DHT22;9762;52.490;13.410;2023-03-31T11:55:15;18.20;91.60
19256;DHT22;9762;52.490;13.410;2023-03-31T12:00:22;18.30;91.70
19256;DHT22;9762;52.490;13.410;2023-03-31T12:03:04;18.30;91.70
19256;DHT22;9762;52.490;13.410;2023-03-31T12:05:33;18.40;91.70
19256;DHT22;9762;52.490;13.410;2023-03-31T12:10:37;18.40;91.00
19256;DHT22;9762;52.490;13.410;2023-03-31T12:16:48;18.30;91.70
19256;DHT22;9762;52.490;13.410;2023-03-31T12:19:01;18.30;91.80
19256;DHT22;9762;52.490;13.410;2023-03-31T12:21:30;18.20;91.80
19256;DHT22;9762;52.490;13.410;2023-03-31T12:23:57;18.20;91.70
19256;DHT22;9762;52.490;13.410;2023-03-31T12:29:04;18.40;91.20
19256;DHT22;9762;52.490;13.410;2023-03-31T12:31:31;18.60;90.30
19256;DHT22;9762;52.490;13.410;2023-03-31T12:34:04;18.70;89.20
19256;DHT22;9762;52.490;13.410;2023-03-31T12:42:23;18.60;87.60
19256;DHT22;9762;52.490;13.410;2023-03-31T12:44:55;18.60;87.90
19256;DHT22;9762;52.490;13.410;2023-03-31T12:50:25;18.20;87.60
19256;DHT22;9762;52.490;13.410;2023-03-31T12:55:48;17.70;91.20
19256;DHT22;9762;52.490;13.410;2023-03-31T13:01:11;17.20;92.30
19256;DHT22;9762;52.490;13.410;2023-03-31T13:09:37;16.90;93.50
19256;DHT22;9762;52.490;13.410;2023-03-31T13:11:52;16.90;93.80
19256;DHT22;9762;52.490;13.410;2023-03-31T13:14:23;16.90;94.10
19256;DHT22;9762;52.490;13.410;2023-03-31T13:16:52;16.80;94.40
19256;DHT22;9762;52.490;13.410;2023-03-31T13:19:35;16.80;94.70
19256;DHT22;9762;52.490;13.410;2023-03-31T13:22:04;16.80;95.00
19256;DHT22;9762;52.490;13.410;2023-03-31T13:24:30;16.70;95.30
19256;DHT22;9762;52.490;13.410;2023-03-31T13:26:58;16.70;95.50
19256;DHT22;9762;52.490;13.410;2023-03-31T13:29:38;16.50;95.90
19256;DHT22;9762;52.490;13.410;2023-03-31T13:32:13;16.40;96.40
19256;DHT22;9762;52.490;13.410;2023-03-31T13:51:28;15.20;98.80
19256;DHT22;9762;52.490;13.410;2023-03-31T14:02:59;15.00;99.70
19256;DHT22;9762;52.490;13.410;2023-03-31T14:05:38;14.80;99.50
19256;DHT22;9762;52.490;13.410;2023-03-31T14:08:11;14.70;99.90
19256;DHT22;9762;52.490;13.410;2023-03-31T14:10:40;14.60;99.90
19256;DHT22;9762;52.490;13.410;2023-03-31T14:13:15;14.50;99.90
19256;DHT22;9762;52.490;13.410;2023-03-31T14:16:01;14.50;99.90
19256;DHT22;9762;52.490;13.410;2023-03-31T14:18:33;14.50;99.90
19256;DHT22;9762;52.490;13.410;2023-03-31T14:26:52;14.40;99.90
19256;DHT22;9762;52.490;13.410;2023-03-31T14:34:55;14.30;99.90
19256;DHT22;9762;52.490;13.410;2023-03-31T14:37:25;14.30;99.60
19256;DHT22;9762;52.490;13.410;2023-03-31T14:39:54;14.20;99.30
19256;DHT22;9762;52.490;13.410;2023-03-31T14:42:26;14.20;99.70
19256;DHT22;9762;52.490;13.410;2023-03-31T14:45:01;14.20;99.70
19256;DHT22;9762;52.490;13.410;2023-03-31T14:47:28;14.20;99.80
19256;DHT22;9762;52.490;13.410;2023-03-31T14:50:02;14.10;99.90
19256;DHT22;9762;52.490;13.410;2023-03-31T14:52:31;14.30;99.90
19256;DHT22;9762;52.490;13.410;2023-03-31T14:54:58;14.10;99.90
19256;DHT22;9762;52.490;13.410;2023-03-31T14:57:34;14.20;99.90
19256;DHT22;9762;52.490;13.410;2023-03-31T15:00:04;14.20;99.90
19256;DHT22;9762;52.490;13.410;2023-03-31T15:02:36;14.30;99.90
19256;DHT22;9762;52.490;13.410;2023-03-31T15:05:05;14.30;99.90
19256;DHT22;9762;52.490;13.410;2023-03-31T15:07:32;14.30;99.90
19256;DHT22;9762;52.490;13.410;2023-03-31T15:09:58;14.30;99.90
19256;DHT22;9762;52.490;13.410;2023-03-31T15:12:25;14.30;99.90
19256;DHT22;9762;52.490;13.410;2023-03-31T15:15:05;14.40;99.90
19256;DHT22;9762;52.490;13.410;2023-03-31T15:17:37;14.40;99.90
19256;DHT22;9762;52.490;13.410;2023-03-31T15:20:37;14.40;99.90
19256;DHT22;9762;52.490;13.410;2023-03-31T15:23:26;14.40;99.90
19256;DHT22;9762;52.490;13.410;2023-03-31T15:26:00;14.40;99.90
19256;DHT22;9762;52.490;13.410;2023-03-31T15:28:32;14.40;99.90
19256;DHT22;9762;52.490;13.410;2023-03-31T15:31:01;14.40;99.90
19256;DHT22;9762;52.490;13.410;2023-03-31T15:33:32;14.40;99.90
19256;DHT22;9762;52.490;13.410;2023-03-31T15:36:01;14.40;99.90
19256;DHT22;9762;52.490;13.410;2023-03-31T15:38:28;14.40;99.90
19256;DHT22;9762;52.490;13.410;2023-03-31T15:40:57;14.40;99.90
19256;DHT22;9762;52.490;13.410;2023-03-31T15:43:41;14.40;99.90
19256;DHT22;9762;52.490;13.410;2023-03-31T15:46:23;14.40;99.90
19256;DHT22;9762;52.490;13.410;2023-03-31T15:48:54;14.40;99.90
19256;DHT22;9762;52.490;13.410;2023-03-31T15:51:36;14.40;99.90
19256;DHT22;9762;52.490;13.410;2023-03-31T15:54:29;14.40;99.90
19256;DHT22;9762;52.490;13.410;2023-03-31T15:56:58;14.30;99.90
19256;DHT22;9762;52.490;13.410;2023-03-31T15:59:28;14.30;99.90
19256;DHT22;9762;52.490;13.410;2023-03-31T16:01:55;14.30;99.90
19256;DHT22;9762;52.490;13.410;2023-03-31T16:04:22;14.30;99.90
19256;DHT22;9762;52.490;13.410;2023-03-31T16:06:54;14.30;99.90
19256;DHT22;9762;52.490;13.410;2023-03-31T16:09:48;14.40;99.90
19256;DHT22;9762;52.490;13.410;2023-03-31T16:12:29;14.30;99.90
19256;DHT22;9762;52.490;13.410;2023-03-31T16:15:11;14.40;99.90
19256;DHT22;9762;52.490;13.410;2023-03-31T16:17:48;14.40;99.90
19256;DHT22;9762;52.490;13.410;2023-03-31T16:20:27;14.40;99.90
19256;DHT22;9762;52.490;13.410;2023-03-31T16:22:57;14.40;99.90
19256;DHT22;9762;52.490;13.410;2023-03-31T16:25:26;14.40;99.90
19256;DHT22;9762;52.490;13.410;2023-03-31T16:27:59;14.40;99.90
19256;DHT22;9762;52.490;13.410;2023-03-31T16:30:52;14.40;99.90
19256;DHT22;9762;52.490;13.410;2023-03-31T16:33:20;14.40;99.90
19256;DHT22;9762;52.490;13.410;2023-03-31T16:35:51;14.40;99.90
19256;DHT22;9762;52.490;13.410;2023-03-31T16:38:21;14.40;99.90
19256;DHT22;9762;52.490;13.410;2023-03-31T16:40:49;14.40;99.90
19256;DHT22;9762;52.490;13.410;2023-03-31T16:45:50;14.50;99.90
19256;DHT22;9762;52.490;13.410;2023-03-31T16:48:17;14.50;99.90
19256;DHT22;9762;52.490;13.410;2023-03-31T16:50:45;14.50;99.90
19256;DHT22;9762;52.490;13.410;2023-03-31T16:53:15;14.50;99.90
19256;DHT22;9762;52.490;13.410;2023-03-31T16:55:41;14.50;99.90
19256;DHT22;9762;52.490;13.410;2023-03-31T16:58:07;14.60;99.90
19256;DHT22;9762;52.490;13.410;2023-03-31T17:00:34;14.60;99.90
19256;DHT22;9762;52.490;13.410;2023-03-31T17:03:01;14.60;99.80
19256;DHT22;9762;52.490;13.410;2023-03-31T17:05:27;14.60;99.80
19256;DHT22;9762;52.490;13.410;2023-03-31T17:07:56;14.60;99.90
19256;DHT22;9762;52.490;13.410;2023-03-31T17:10:22;14.60;99.70
19256;DHT22;9762;52.490;13.410;2023-03-31T17:12:48;14.60;99.90
19256;DHT22;9762;52.490;13.410;2023-03-31T17:15:13;14.60;99.90
19256;DHT22;9762;52.490;13.410;2023-03-31T17:17:39;14.60;99.90
19256;DHT22;9762;52.490;13.410;2023-03-31T17:20:05;14.60;99.90
19256;DHT22;9762;52.490;13.410;2023-03-31T17:22:31;14.60;99.90
19256;DHT22;9762;52.490;13.410;2023-03-31T17:24:57;14.60;99.90
19256;DHT22;9762;52.490;13.410;2023-03-31T17:27:24;14.60;99.90
19256;DHT22;9762;52.490;13.410;2023-03-31T17:29:50;14.60;99.80
19256;DHT22;9762;52.490;13.410;2023-03-31T17:32:15;14.60;99.90
19256;DHT22;9762;52.490;13.410;2023-03-31T17:34:42;14.70;99.90
19256;DHT22;9762;52.490;13.410;2023-03-31T17:37:07;14.70;99.80
19256;DHT22;9762;52.490;13.410;2023-03-31T17:39:33;14.70;99.80
19256;DHT22;9762;52.490;13.410;2023-03-31T17:41:59;14.70;99.70
19256;DHT22;9762;52.490;13.410;2023-03-31T17:44:25;14.70;99.70
19256;DHT22;9762;52.490;13.410;2023-03-31T17:46:51;14.70;99.70
19256;DHT22;9762;52.490;13.410;2023-03-31T17:49:16;14.70;99.90
19256;DHT22;9762;52.490;13.410;2023-03-31T17:51:42;14.70;99.90
19256;DHT22;9762;52.490;13.410;2023-03-31T17:54:09;14.70;99.90
19256;DHT22;9762;52.490;13.410;2023-03-31T17:56:35;14.70;99.80
19256;DHT22;9762;52.490;13.410;2023-03-31T17:59:01;14.70;99.70
19256;DHT22;9762;52.490;13.410;2023-03-31T18:01:27;14.70;99.70
19256;DHT22;9762;52.490;13.410;2023-03-31T18:03:56;14.70;99.70
19256;DHT22;9762;52.490;13.410;2023-03-31T18:06:23;14.70;99.60
19256;DHT22;9762;52.490;13.410;2023-03-31T18:08:49;14.70;99.50
19256;DHT22;9762;52.490;13.410;2023-03-31T18:11:15;14.70;99.50
19256;DHT22;9762;52.490;13.410;2023-03-31T18:13:41;14.60;99.70
19256;DHT22;9762;52.490;13.410;2023-03-31T18:16:08;14.60;99.70
19256;DHT22;9762;52.490;13.410;2023-03-31T18:18:34;13.80;99.50
19256;DHT22;9762;52.490;13.410;2023-03-31T18:21:06;14.60;99.90
19256;DHT22;9762;52.490;13.410;2023-03-31T18:23:33;14.50;99.90
19256;DHT22;9762;52.490;13.410;2023-03-31T18:25:59;14.60;99.90
19256;DHT22;9762;52.490;13.410;2023-03-31T18:28:25;14.60;99.90
19256;DHT22;9762;52.490;13.410;2023-03-31T18:30:51;14.60;99.90
19256;DHT22;9762;52.490;13.410;2023-03-31T18:33:18;14.60;99.90
19256;DHT22;9762;52.490;13.410;2023-03-31T18:35:44;14.60;99.90
19256;DHT22;9762;52.490;13.410;2023-03-31T18:38:11;14.70;99.90
19256;DHT22;9762;52.490;13.410;2023-03-31T18:40:37;14.70;99.90
19256;DHT22;9762;52.490;13.410;2023-03-31T18:43:04;14.70;99.90
19256;DHT22;9762;52.490;13.410;2023-03-31T18:45:30;14.80;99.90
19256;DHT22;9762;52.490;13.410;2023-03-31T18:47:57;14.70;99.90
19256;DHT22;9762;52.490;13.410;2023-03-31T18:50:22;14.70;99.90
19256;DHT22;9762;52.490;13.410;2023-03-31T18:52:49;14.70;99.90
19256;DHT22;9762;52.490;13.410;2023-03-31T18:55:18;14.70;99.90
19256;DHT22;9762;52.490;13.410;2023-03-31T18:57:44;14.70;99.90
19256;DHT22;9762;52.490;13.410;2023-03-31T19:00:10;14.70;99.90
19256;DHT22;9762;52.490;13.410;2023-03-31T19:02:36;14.70;99.90